createdAt,value
2022-08-19T00:01:59.358Z,98301.72
2022-08-19T00:04:33.778Z,98302.78
2022-08-19T00:07:00.937Z,98309.38
2022-08-19T00:09:28.772Z,98302.31
2022-08-19T00:11:57.246Z,98298.06
2022-08-19T00:14:25.703Z,98302.78
2022-08-19T00:16:55.139Z,98301.59
2022-08-19T00:19:22.827Z,98308.09
2022-08-19T00:21:49.284Z,98302.91
2022-08-19T00:24:16.178Z,98302.06
2022-08-19T00:26:44.575Z,98299.94
2022-08-19T00:29:13.167Z,98305.16
2022-08-19T00:31:40.461Z,98305.38
2022-08-19T00:34:06.912Z,98302.06
2022-08-19T00:36:33.973Z,98304.78
2022-08-19T00:39:00.618Z,98313.28
2022-08-19T00:41:27.494Z,98308.66
2022-08-19T00:44:00.173Z,98302.66
2022-08-19T00:46:27.694Z,98310.19
2022-08-19T00:48:55.585Z,98295.44
2022-08-19T00:51:23.091Z,98292.53
2022-08-19T00:53:49.568Z,98286.84
2022-08-19T00:56:16.467Z,98287.19
2022-08-19T00:58:42.931Z,98293.56
2022-08-19T01:01:09.329Z,98289.31
2022-08-19T01:03:58.047Z,98287.78
2022-08-19T01:06:26.278Z,98286.72
2022-08-19T01:08:53.123Z,98297.09
2022-08-19T01:11:19.567Z,98298.41
2022-08-19T01:13:49.986Z,98294.63
2022-08-19T01:16:20.214Z,98300.06
2022-08-19T01:18:47.066Z,98301.34
2022-08-19T01:21:22.860Z,98305.38
2022-08-19T01:23:49.499Z,98299.94
2022-08-19T01:26:20.544Z,98303.00
2022-08-19T01:28:49.563Z,98292.16
2022-08-19T01:31:26.855Z,98296.28
2022-08-19T01:33:56.958Z,98301.34
2022-08-19T01:36:29.639Z,98295.69
2022-08-19T01:38:57.196Z,98285.91
2022-08-19T01:41:24.349Z,98287.56
2022-08-19T01:44:03.266Z,98292.75
2022-08-19T01:46:39.805Z,98288.50
2022-08-19T01:49:07.172Z,98289.34
2022-08-19T01:51:39.732Z,98287.56
2022-08-19T01:54:10.686Z,98276.47
2022-08-19T01:56:37.213Z,98281.41
2022-08-19T01:59:10.993Z,98274.94
2022-08-19T02:01:37.714Z,98273.28
2022-08-19T02:04:04.165Z,98267.03
2022-08-19T02:06:30.653Z,98268.91
2022-08-19T02:08:57.809Z,98271.41
2022-08-19T02:11:34.861Z,98264.44
2022-08-19T02:14:02.914Z,98271.16
2022-08-19T02:16:29.762Z,98264.22
2022-08-19T02:18:56.215Z,98271.63
2022-08-19T02:21:23.471Z,98266.56
2022-08-19T02:23:51.009Z,98267.16
2022-08-19T02:26:18.215Z,98264.19
2022-08-19T02:28:44.655Z,98259.84
2022-08-19T02:31:15.838Z,98265.25
2022-08-19T02:33:43.040Z,98260.44
2022-08-19T02:36:10.786Z,98262.91
2022-08-19T02:38:38.035Z,98266.19
2022-08-19T02:41:12.036Z,98258.31
2022-08-19T02:43:39.590Z,98250.19
2022-08-19T02:46:16.680Z,98259.59
2022-08-19T02:48:43.127Z,98255.81
2022-08-19T02:51:09.475Z,98262.44
2022-08-19T02:53:35.988Z,98259.59
2022-08-19T02:56:02.417Z,98264.22
2022-08-19T02:58:28.936Z,98256.66
2022-08-19T03:00:56.901Z,98259.59
2022-08-19T03:03:24.300Z,98267.97
2022-08-19T03:05:56.889Z,98271.97
2022-08-19T03:08:26.697Z,98276.47
2022-08-19T03:10:54.206Z,98275.66
2022-08-19T03:13:20.861Z,98273.41
2022-08-19T03:15:49.050Z,98282.47
2022-08-19T03:18:17.933Z,98293.34
2022-08-19T03:20:53.763Z,98292.03
2022-08-19T03:23:20.296Z,98292.63
2022-08-19T03:26:03.926Z,98290.88
2022-08-19T03:28:34.948Z,98292.88
2022-08-19T03:31:41.481Z,98292.75
2022-08-19T03:33:54.120Z,98296.63
2022-08-19T03:36:23.884Z,98290.88
2022-08-19T03:38:59.738Z,98285.91
2022-08-19T03:41:45.830Z,98290.25
2022-08-19T03:44:24.075Z,98301.00
2022-08-19T03:46:53.899Z,98297.56
2022-08-19T03:49:21.270Z,98303.13
2022-08-19T03:51:55.202Z,98314.69
2022-08-19T03:54:24.176Z,98306.69
2022-08-19T03:56:52.547Z,98305.38
2022-08-19T03:59:26.822Z,98306.09
2022-08-19T04:01:56.135Z,98308.09
2022-08-19T04:04:22.961Z,98314.56
2022-08-19T04:06:49.667Z,98324.00
2022-08-19T04:09:16.683Z,98314.56
2022-08-19T04:11:55.137Z,98314.09
2022-08-19T04:14:26.739Z,98313.28
2022-08-19T04:16:53.887Z,98319.53
2022-08-19T04:19:20.985Z,98327.19
2022-08-19T04:21:50.749Z,98330.84
2022-08-19T04:24:18.288Z,98328.25
2022-08-19T04:26:45.513Z,98323.38
2022-08-19T04:29:16.493Z,98324.09
2022-08-19T04:31:45.223Z,98326.47
2022-08-19T04:34:13.775Z,98322.84
2022-08-19T04:36:42.510Z,98323.53
2022-08-19T04:39:17.939Z,98323.66
2022-08-19T04:42:04.358Z,98307.84
2022-08-19T04:44:36.078Z,98311.72
2022-08-19T04:47:12.761Z,98317.41
2022-08-19T04:49:39.152Z,98316.69
2022-08-19T04:52:06.252Z,98315.41
2022-08-19T04:54:38.537Z,98317.88
2022-08-19T04:57:09.416Z,98331.44
2022-08-19T04:59:37.653Z,98332.75
2022-08-19T05:02:05.570Z,98330.38
2022-08-19T05:04:34.474Z,98335.00
2022-08-19T05:07:01.988Z,98343.59
2022-08-19T05:09:52.495Z,98347.38
2022-08-19T05:12:17.766Z,98349.63
2022-08-19T05:14:46.463Z,98354.66
2022-08-19T05:17:31.241Z,98355.03
2022-08-19T05:20:17.180Z,98364.59
2022-08-19T05:22:46.175Z,98364.13
2022-08-19T05:25:15.379Z,98364.25
2022-08-19T05:27:43.284Z,98362.38
2022-08-19T05:30:11.541Z,98357.16
2022-08-19T05:32:38.723Z,98359.53
2022-08-19T05:35:06.628Z,98360.72
2022-08-19T05:37:34.580Z,98360.00
2022-08-19T05:40:01.123Z,98358.59
2022-08-19T05:42:27.636Z,98355.63
2022-08-19T05:44:54.178Z,98357.88
2022-08-19T05:47:20.998Z,98364.84
2022-08-19T05:49:50.819Z,98366.97
2022-08-19T05:52:18.833Z,98375.69
2022-08-19T05:54:51.435Z,98368.63
2022-08-19T05:57:20.065Z,98372.03
2022-08-19T05:59:53.321Z,98376.88
2022-08-19T06:02:31.453Z,98381.13
2022-08-19T06:04:58.098Z,98389.38
2022-08-19T06:07:24.624Z,98384.34
2022-08-19T06:10:00.682Z,98387.88
2022-08-19T06:12:35.511Z,98391.63
2022-08-19T06:15:06.566Z,98396.38
2022-08-19T06:17:35.544Z,98399.19
2022-08-19T06:20:04.504Z,98397.53
2022-08-19T06:22:31.080Z,98406.53
2022-08-19T06:24:57.590Z,98410.28
2022-08-19T06:27:24.179Z,98407.59
2022-08-19T06:29:50.672Z,98414.63
2022-08-19T06:32:19.488Z,98405.34
2022-08-19T06:34:46.452Z,98403.56
2022-08-19T06:37:13.161Z,98411.34
2022-08-19T06:39:41.686Z,98410.53
2022-08-19T06:42:12.202Z,98423.88
2022-08-19T06:44:42.553Z,98414.91
2022-08-19T06:47:14.597Z,98406.06
2022-08-19T06:49:49.517Z,98419.63
2022-08-19T06:52:16.871Z,98414.78
2022-08-19T06:54:55.763Z,98420.34
2022-08-19T06:57:25.156Z,98415.97
2022-08-19T06:59:52.499Z,98415.25
2022-08-19T07:02:20.138Z,98409.25
2022-08-19T07:04:47.071Z,98402.03
2022-08-19T07:07:20.327Z,98409.75
2022-08-19T07:09:59.858Z,98403.16
2022-08-19T07:12:35.639Z,98407.16
2022-08-19T07:15:04.842Z,98406.81
2022-08-19T07:17:31.597Z,98412.34
2022-08-19T07:20:07.019Z,98420.72
2022-08-19T07:22:36.447Z,98414.47
2022-08-19T07:25:04.587Z,98419.44
2022-08-19T07:27:31.070Z,98420.25
2022-08-19T07:30:00.836Z,98426.16
2022-08-19T07:32:27.671Z,98424.03
2022-08-19T07:34:55.355Z,98421.66
2022-08-19T07:37:24.160Z,98425.53
2022-08-19T07:39:50.758Z,98421.72
2022-08-19T07:42:21.721Z,98419.88
2022-08-19T07:44:50.002Z,98418.81
2022-08-19T07:47:47.845Z,98415.78
2022-08-19T07:50:09.571Z,98423.38
2022-08-19T07:52:39.471Z,98421.72
2022-08-19T07:55:13.640Z,98417.13
2022-08-19T07:57:54.788Z,98420.34
2022-08-19T08:00:23.797Z,98412.06
2022-08-19T08:02:52.185Z,98422.34
2022-08-19T08:05:43.382Z,98426.00
2022-08-19T08:08:44.123Z,98430.38
2022-08-19T08:11:15.808Z,98438.19
2022-08-19T08:13:44.558Z,98434.41
2022-08-19T08:16:14.130Z,98431.81
2022-08-19T08:18:43.136Z,98437.00
2022-08-19T08:21:10.009Z,98443.59
2022-08-19T08:23:36.790Z,98451.13
2022-08-19T08:26:06.394Z,98448.19
2022-08-19T08:28:33.107Z,98461.53
2022-08-19T08:30:59.624Z,98453.38
2022-08-19T08:33:33.340Z,98463.66
2022-08-19T08:36:03.903Z,98456.91
2022-08-19T08:38:38.740Z,98461.75
2022-08-19T08:41:19.939Z,98463.66
2022-08-19T08:43:48.521Z,98465.63
2022-08-19T08:46:31.390Z,98457.97
2022-08-19T08:49:02.776Z,98468.38
2022-08-19T08:51:44.049Z,98467.06
2022-08-19T08:54:18.717Z,98471.03
2022-08-19T08:56:49.360Z,98472.56
2022-08-19T08:59:31.688Z,98484.16
2022-08-19T09:01:58.210Z,98477.84
2022-08-19T09:04:25.038Z,98485.53
2022-08-19T09:07:34.777Z,98487.44
2022-08-19T09:10:26.016Z,98492.53
2022-08-19T09:13:09.157Z,98502.25
2022-08-19T09:15:45.351Z,98492.19
2022-08-19T09:18:18.972Z,98499.69
2022-08-19T09:20:48.251Z,98505.59
2022-08-19T09:23:15.612Z,98503.94
2022-08-19T09:25:42.172Z,98508.44
2022-08-19T09:28:15.073Z,98504.44
2022-08-19T09:30:49.416Z,98505.59
2022-08-19T09:33:16.975Z,98508.44
2022-08-19T09:35:49.766Z,98505.56
2022-08-19T09:38:21.543Z,98500.78
2022-08-19T09:40:48.051Z,98503.47
2022-08-19T09:43:14.502Z,98500.78
2022-08-19T09:45:41.524Z,98506.25
2022-08-19T09:48:09.481Z,98503.22
2022-08-19T09:50:39.452Z,98514.22
2022-08-19T09:53:18.815Z,98511.13
2022-08-19T09:55:45.365Z,98512.44
2022-08-19T09:58:12.030Z,98520.50
2022-08-19T10:00:39.184Z,98510.97
2022-08-19T10:03:05.625Z,98507.44
2022-08-19T10:05:48.992Z,98510.94
2022-08-19T10:08:26.622Z,98507.56
2022-08-19T10:10:54.412Z,98517.06
2022-08-19T10:13:25.812Z,98521.59
2022-08-19T10:15:55.199Z,98524.91
2022-08-19T10:18:24.437Z,98522.84
2022-08-19T10:20:53.207Z,98526.38
2022-08-19T10:23:21.774Z,98517.13
2022-08-19T10:25:48.956Z,98520.94
2022-08-19T10:28:15.519Z,98520.25
2022-08-19T10:30:42.769Z,98516.94
2022-08-19T10:33:11.049Z,98517.19
2022-08-19T10:35:56.377Z,98516.94
2022-08-19T10:38:31.433Z,98526.00
2022-08-19T10:40:59.108Z,98524.53
2022-08-19T10:43:25.861Z,98526.31
2022-08-19T10:46:00.148Z,98519.03
2022-08-19T10:48:26.687Z,98523.06
2022-08-19T10:51:22.565Z,98523.56
2022-08-19T10:53:50.674Z,98525.94
2022-08-19T10:56:36.952Z,98525.44
2022-08-19T10:59:05.134Z,98522.13
2022-08-19T11:01:34.211Z,98511.84
2022-08-19T11:04:03.011Z,98518.44
2022-08-19T11:06:30.255Z,98526.69
2022-08-19T11:08:57.045Z,98515.09
2022-08-19T11:11:23.871Z,98523.41
2022-08-19T11:13:51.167Z,98510.31
2022-08-19T11:16:22.420Z,98516.09
2022-08-19T11:18:51.819Z,98517.22
2022-08-19T11:21:22.704Z,98519.72
2022-08-19T11:23:52.617Z,98515.22
2022-08-19T11:26:20.647Z,98515.19
2022-08-19T11:28:48.007Z,98516.47
2022-08-19T11:31:19.803Z,98515.56
2022-08-19T11:33:47.987Z,98506.00
2022-08-19T11:36:15.337Z,98506.53
2022-08-19T11:38:42.602Z,98509.06
2022-08-19T11:41:09.085Z,98514.41
2022-08-19T11:43:37.719Z,98513.69
2022-08-19T11:46:12.975Z,98512.56
2022-08-19T11:48:40.232Z,98511.00
2022-08-19T11:51:10.235Z,98504.75
2022-08-19T11:53:37.824Z,98507.75
2022-08-19T11:56:05.676Z,98510.28
2022-08-19T11:58:32.492Z,98509.50
2022-08-19T12:00:58.947Z,98508.47
2022-08-19T12:03:25.808Z,98508.44
2022-08-19T12:05:52.813Z,98501.91
2022-08-19T12:08:19.924Z,98504.50
2022-08-19T12:10:46.629Z,98504.09
2022-08-19T12:13:19.524Z,98500.34
2022-08-19T12:15:48.291Z,98498.41
2022-08-19T12:18:15.319Z,98496.00
2022-08-19T12:20:43.807Z,98495.00
2022-08-19T12:23:11.409Z,98506.69
2022-08-19T12:25:44.056Z,98505.25
2022-08-19T12:28:10.551Z,98485.56
2022-08-19T12:30:39.052Z,98488.34
2022-08-19T12:33:05.495Z,98494.44
2022-08-19T12:35:32.739Z,98495.59
2022-08-19T12:37:59.904Z,98497.38
2022-08-19T12:40:26.756Z,98481.56
2022-08-19T12:42:54.299Z,98481.91
2022-08-19T12:45:20.897Z,98492.34
2022-08-19T12:47:47.739Z,98499.19
2022-08-19T12:50:16.498Z,98494.50
2022-08-19T12:52:43.271Z,98495.81
2022-08-19T12:55:10.507Z,98494.97
2022-08-19T12:57:36.984Z,98485.34
2022-08-19T13:00:12.269Z,98486.66
2022-08-19T13:02:45.334Z,98478.97
2022-08-19T13:05:16.679Z,98478.50
2022-08-19T13:07:46.497Z,98475.81
2022-08-19T13:10:17.919Z,98486.88
2022-08-19T13:12:46.045Z,98490.72
2022-08-19T13:15:15.198Z,98491.22
2022-08-19T13:17:42.317Z,98485.59
2022-08-19T13:20:10.448Z,98478.28
2022-08-19T13:22:37.689Z,98474.69
2022-08-19T13:25:07.295Z,98479.66
2022-08-19T13:27:33.999Z,98475.84
2022-08-19T13:30:19.728Z,98479.66
2022-08-19T13:33:04.604Z,98479.09
2022-08-19T13:35:31.087Z,98479.44
2022-08-19T13:37:57.503Z,98473.53
2022-08-19T13:40:27.161Z,98470.31
2022-08-19T13:42:55.758Z,98468.66
2022-08-19T13:45:25.202Z,98470.88
2022-08-19T13:47:58.955Z,98459.53
2022-08-19T13:50:32.115Z,98456.38
2022-08-19T13:52:59.181Z,98461.84
2022-08-19T13:55:27.621Z,98458.81
2022-08-19T13:57:56.888Z,98461.47
2022-08-19T14:00:27.120Z,98471.91
2022-08-19T14:02:56.661Z,98476.91
2022-08-19T14:05:23.950Z,98473.34
2022-08-19T14:07:50.748Z,98476.94
2022-08-19T14:10:18.578Z,98472.53
2022-08-19T14:12:45.349Z,98470.88
2022-08-19T14:15:13.427Z,98470.94
2022-08-19T14:17:41.912Z,98473.66
2022-08-19T14:20:11.163Z,98469.03
2022-08-19T14:22:44.912Z,98476.13
2022-08-19T14:25:15.314Z,98478.88
2022-08-19T14:27:42.450Z,98475.63
2022-08-19T14:30:12.329Z,98476.72
2022-08-19T14:32:38.843Z,98477.47
2022-08-19T14:35:08.167Z,98482.16
2022-08-19T14:37:45.214Z,98479.66
2022-08-19T14:40:15.389Z,98479.09
2022-08-19T14:42:42.789Z,98472.00
2022-08-19T14:45:11.378Z,98476.13
2022-08-19T14:47:39.757Z,98477.25
2022-08-19T14:50:18.278Z,98484.13
2022-08-19T14:52:49.366Z,98485.78
2022-08-19T14:55:18.038Z,98473.72
2022-08-19T14:57:45.649Z,98478.63
2022-08-19T15:00:14.073Z,98480.84
2022-08-19T15:02:45.175Z,98480.81
2022-08-19T15:05:13.743Z,98480.84
2022-08-19T15:07:41.760Z,98481.94
2022-08-19T15:10:10.553Z,98490.69
2022-08-19T15:12:40.646Z,98499.78
2022-08-19T15:15:08.765Z,98494.53
2022-08-19T15:17:45.939Z,98488.50
2022-08-19T15:20:18.985Z,98495.06
2022-08-19T15:22:46.229Z,98496.72
2022-08-19T15:25:16.436Z,98495.63
2022-08-19T15:27:44.066Z,98501.88
2022-08-19T15:30:11.765Z,98495.03
2022-08-19T15:32:39.691Z,98495.03
2022-08-19T15:35:06.975Z,98500.78
2022-08-19T15:37:37.117Z,98497.78
2022-08-19T15:40:07.380Z,98499.94
2022-08-19T15:42:36.172Z,98496.63
2022-08-19T15:45:04.693Z,98501.28
2022-08-19T15:47:34.724Z,98497.09
2022-08-19T15:50:12.196Z,98500.41
2022-08-19T15:52:52.621Z,98505.34
2022-08-19T15:55:33.275Z,98506.41
2022-08-19T15:58:29.207Z,98498.69
2022-08-19T16:01:17.846Z,98500.09
2022-08-19T16:04:11.152Z,98507.19
2022-08-19T16:06:46.650Z,98498.16
2022-08-19T16:09:14.203Z,98498.72
2022-08-19T16:11:46.669Z,98500.94
2022-08-19T16:14:15.518Z,98500.06
2022-08-19T16:16:42.248Z,98495.16
2022-08-19T16:19:10.257Z,98501.16
2022-08-19T16:21:41.916Z,98499.53
2022-08-19T16:24:12.868Z,98510.19
2022-08-19T16:26:41.242Z,98493.75
2022-08-19T16:29:13.097Z,98498.94
2022-08-19T16:31:44.656Z,98496.22
2022-08-19T16:34:12.306Z,98496.22
2022-08-19T16:36:43.342Z,98496.81
2022-08-19T16:39:11.421Z,98494.22
2022-08-19T16:41:39.818Z,98494.22
2022-08-19T16:44:08.468Z,98498.91
2022-08-19T16:46:37.096Z,98503.31
2022-08-19T16:49:05.142Z,98501.91
2022-08-19T16:51:33.663Z,98506.00
2022-08-19T16:54:01.144Z,98506.81
2022-08-19T16:56:28.849Z,98510.38
2022-08-19T16:58:55.861Z,98509.25
2022-08-19T17:01:22.454Z,98511.16
2022-08-19T17:03:51.400Z,98514.75
2022-08-19T17:06:21.204Z,98508.72
2022-08-19T17:08:54.221Z,98509.81
2022-08-19T17:11:24.325Z,98513.13
2022-08-19T17:13:51.342Z,98509.78
2022-08-19T17:16:21.925Z,98513.34
2022-08-19T17:18:52.184Z,98511.97
2022-08-19T17:21:27.318Z,98508.06
2022-08-19T17:23:55.708Z,98508.03
2022-08-19T17:26:23.363Z,98515.09
2022-08-19T17:28:52.364Z,98518.34
2022-08-19T17:31:22.982Z,98518.25
2022-08-19T17:33:50.553Z,98517.97
2022-08-19T17:36:26.315Z,98525.88
2022-08-19T17:38:55.187Z,98523.69
2022-08-19T17:41:24.112Z,98518.69
2022-08-19T17:43:50.802Z,98532.66
2022-08-19T17:46:18.858Z,98521.91
2022-08-19T17:48:55.056Z,98530.81
2022-08-19T17:51:32.317Z,98531.63
2022-08-19T17:53:59.715Z,98526.22
2022-08-19T17:56:28.635Z,98525.38
2022-08-19T17:59:00.698Z,98534.63
2022-08-19T18:01:43.884Z,98537.09
2022-08-19T18:04:17.196Z,98539.00
2022-08-19T18:06:46.562Z,98534.81
2022-08-19T18:09:23.646Z,98549.88
2022-08-19T18:11:52.605Z,98550.09
2022-08-19T18:14:32.241Z,98554.94
2022-08-19T18:17:09.072Z,98558.00
2022-08-19T18:19:43.090Z,98561.72
2022-08-19T18:22:23.148Z,98569.56
2022-08-19T18:24:49.936Z,98576.88
2022-08-19T18:27:16.464Z,98580.59
2022-08-19T18:29:43.370Z,98569.09
2022-08-19T18:32:13.420Z,98574.50
2022-08-19T18:34:43.639Z,98580.81
2022-08-19T18:37:10.942Z,98576.09
2022-08-19T18:39:55.925Z,98587.88
2022-08-19T18:42:41.067Z,98594.28
2022-08-19T18:45:26.660Z,98599.44
2022-08-19T18:48:18.489Z,98591.69
2022-08-19T18:50:58.706Z,98602.78
2022-08-19T18:53:28.736Z,98597.41
2022-08-19T18:55:55.823Z,98610.47
2022-08-19T18:58:33.900Z,98596.09
2022-08-19T19:01:12.997Z,98611.63
2022-08-19T19:03:49.408Z,98612.63
2022-08-19T19:06:19.802Z,98619.47
2022-08-19T19:08:47.266Z,98617.34
2022-08-19T19:11:20.013Z,98613.81
2022-08-19T19:13:46.960Z,98622.47
2022-08-19T19:16:13.429Z,98619.75
2022-08-19T19:18:39.963Z,98618.66
2022-08-19T19:21:08.099Z,98621.84
2022-08-19T19:23:34.688Z,98624.47
2022-08-19T19:26:01.629Z,98625.44
2022-08-19T19:28:29.267Z,98630.72
2022-08-19T19:31:00.331Z,98629.81
2022-08-19T19:33:27.944Z,98628.75
2022-08-19T19:35:54.808Z,98629.72
2022-08-19T19:38:21.300Z,98641.81
2022-08-19T19:40:47.904Z,98640.66
2022-08-19T19:43:16.731Z,98640.53
2022-08-19T19:45:43.404Z,98639.03
2022-08-19T19:48:13.659Z,98640.69
2022-08-19T19:50:40.757Z,98643.63
2022-08-19T19:53:07.275Z,98650.38
2022-08-19T19:55:33.948Z,98644.31
2022-08-19T19:58:00.412Z,98651.97
2022-08-19T20:00:26.907Z,98646.31
2022-08-19T20:02:56.258Z,98650.34
2022-08-19T20:05:23.965Z,98657.78
2022-08-19T20:08:11.133Z,98658.38
2022-08-19T20:10:39.912Z,98669.38
2022-08-19T20:13:07.654Z,98671.59
2022-08-19T20:15:37.925Z,98666.63
2022-08-19T20:18:06.955Z,98679.38
2022-08-19T20:20:34.217Z,98674.88
2022-08-19T20:23:00.918Z,98682.44
2022-08-19T20:25:27.471Z,98689.78
2022-08-19T20:27:54.420Z,98691.75
2022-08-19T20:30:22.024Z,98696.13
2022-08-19T20:32:50.403Z,98702.03
2022-08-19T20:35:18.955Z,98709.00
2022-08-19T20:37:45.437Z,98713.81
2022-08-19T20:40:13.384Z,98714.03
2022-08-19T20:42:42.367Z,98719.00
2022-08-19T20:45:21.537Z,98710.88
2022-08-19T20:47:57.945Z,98718.41
2022-08-19T20:50:24.399Z,98723.06
2022-08-19T20:52:53.686Z,98724.25
2022-08-19T20:55:21.904Z,98728.63
2022-08-19T20:57:49.031Z,98719.53
2022-08-19T21:00:15.948Z,98726.63
2022-08-19T21:02:42.419Z,98727.91
2022-08-19T21:05:08.977Z,98731.69
2022-08-19T21:07:39.254Z,98733.72
2022-08-19T21:10:07.130Z,98731.22
2022-08-19T21:12:33.682Z,98732.53
2022-08-19T21:15:00.250Z,98730.03
2022-08-19T21:17:26.995Z,98728.50
2022-08-19T21:19:53.466Z,98737.97
2022-08-19T21:22:19.819Z,98730.03
2022-08-19T21:24:46.294Z,98729.22
2022-08-19T21:27:12.627Z,98717.88
2022-08-19T21:29:40.433Z,98720.47
2022-08-19T21:32:07.798Z,98723.03
2022-08-19T21:34:34.335Z,98728.69
2022-08-19T21:37:00.782Z,98729.41
2022-08-19T21:39:27.159Z,98732.72
2022-08-19T21:41:54.325Z,98738.13
2022-08-19T21:44:20.900Z,98738.22
2022-08-19T21:46:50.726Z,98736.56
2022-08-19T21:49:17.422Z,98739.50
2022-08-19T21:51:44.100Z,98742.13
2022-08-19T21:54:14.200Z,98739.22
2022-08-19T21:56:41.327Z,98736.69
2022-08-19T21:59:08.671Z,98745.09
2022-08-19T22:01:35.720Z,98738.81
2022-08-19T22:04:02.399Z,98742.81
2022-08-19T22:06:28.943Z,98747.06
2022-08-19T22:08:55.486Z,98739.72
2022-08-19T22:11:23.926Z,98742.69
2022-08-19T22:13:53.727Z,98736.50
2022-08-19T22:16:20.771Z,98737.91
2022-08-19T22:18:50.546Z,98742.97
2022-08-19T22:21:31.385Z,98732.94
2022-08-19T22:24:05.991Z,98737.75
2022-08-19T22:26:32.435Z,98738.00
2022-08-19T22:29:00.647Z,98739.06
2022-08-19T22:31:28.619Z,98735.00
2022-08-19T22:33:55.743Z,98732.13
2022-08-19T22:36:22.289Z,98735.53
2022-08-19T22:38:48.756Z,98733.31
2022-08-19T22:41:16.193Z,98744.63
2022-08-19T22:43:43.436Z,98734.22
2022-08-19T22:46:16.970Z,98737.53
2022-08-19T22:48:43.962Z,98740.50
2022-08-19T22:51:28.910Z,98742.50
2022-08-19T22:53:57.140Z,98743.19
2022-08-19T22:56:23.606Z,98742.50
2022-08-19T22:58:52.761Z,98733.41
2022-08-19T23:01:27.201Z,98733.59
2022-08-19T23:03:56.729Z,98732.19
2022-08-19T23:06:23.187Z,98736.31
2022-08-19T23:08:56.327Z,98728.56
2022-08-19T23:11:23.035Z,98725.88
2022-08-19T23:13:49.496Z,98723.41
2022-08-19T23:16:15.935Z,98720.09
2022-08-19T23:18:42.604Z,98717.16
2022-08-19T23:21:09.494Z,98718.81
2022-08-19T23:23:37.905Z,98717.59
2022-08-19T23:26:06.049Z,98713.06
2022-08-19T23:28:56.946Z,98704.16
2022-08-19T23:31:26.801Z,98706.66
2022-08-19T23:33:55.371Z,98706.41
2022-08-19T23:36:23.219Z,98711.41
2022-08-19T23:38:52.219Z,98709.56
2022-08-19T23:41:20.644Z,98706.91
2022-08-19T23:43:47.601Z,98708.16
2022-08-19T23:46:27.450Z,98707.09
2022-08-19T23:48:55.628Z,98709.81
2022-08-19T23:51:22.126Z,98714.25
2022-08-19T23:53:48.471Z,98704.63
2022-08-19T23:56:14.923Z,98706.50
2022-08-19T23:58:41.340Z,98709.81
